createdAt,value
2023-02-25T00:02:03.508Z,28.70
2023-02-25T00:04:32.904Z,29.80
2023-02-25T00:07:22.924Z,29.60
2023-02-25T00:09:54.341Z,28.50
2023-02-25T00:12:24.283Z,25.20
2023-02-25T00:14:52.904Z,28.20
2023-02-25T00:17:21.209Z,28.60
2023-02-25T00:19:49.313Z,28.60
2023-02-25T00:22:21.449Z,29.90
2023-02-25T00:24:56.139Z,26.10
2023-02-25T00:27:25.595Z,29.00
2023-02-25T00:29:54.729Z,30.10
2023-02-25T00:32:23.533Z,27.60
2023-02-25T00:34:52.498Z,30.70
2023-02-25T00:37:21.540Z,29.30
2023-02-25T00:39:49.822Z,26.40
2023-02-25T00:42:18.973Z,25.80
2023-02-25T00:44:49.912Z,27.30
2023-02-25T00:47:19.415Z,27.70
2023-02-25T00:49:53.238Z,26.70
2023-02-25T00:52:21.502Z,28.50
2023-02-25T00:54:49.879Z,26.80
2023-02-25T00:57:18.365Z,33.30
2023-02-25T00:59:46.617Z,26.90
2023-02-25T01:02:14.808Z,25.60
2023-02-25T01:04:44.023Z,27.10
2023-02-25T01:07:14.331Z,27.70
2023-02-25T01:09:42.753Z,31.00
2023-02-25T01:12:10.965Z,30.40
2023-02-25T01:14:41.204Z,27.20
2023-02-25T01:17:09.789Z,29.10
2023-02-25T01:19:41.876Z,28.80
2023-02-25T01:22:10.761Z,30.00
2023-02-25T01:24:39.378Z,27.30
2023-02-25T01:27:08.741Z,27.00
2023-02-25T01:29:40.660Z,28.60
2023-02-25T01:32:13.968Z,27.80
2023-02-25T01:37:11.983Z,36.30
2023-02-25T01:39:41.711Z,28.50
2023-02-25T01:42:19.314Z,26.80
2023-02-25T01:45:22.416Z,26.70
2023-02-25T01:47:58.700Z,30.60
2023-02-25T01:50:32.079Z,31.80
2023-02-25T01:53:00.426Z,30.50
2023-02-25T01:55:29.682Z,28.60
2023-02-25T01:57:58.982Z,28.50
2023-02-25T02:00:28.780Z,32.30
2023-02-25T02:02:57.712Z,30.70
2023-02-25T02:05:38.464Z,33.40
2023-02-25T02:08:06.702Z,29.70
2023-02-25T02:10:35.433Z,29.20
2023-02-25T02:13:05.637Z,32.40
2023-02-25T02:15:35.829Z,35.50
2023-02-25T02:18:04.566Z,31.30
2023-02-25T02:20:39.645Z,27.10
2023-02-25T02:23:17.243Z,33.50
2023-02-25T02:26:21.515Z,32.70
2023-02-25T02:29:14.473Z,29.20
2023-02-25T02:31:59.375Z,29.50
2023-02-25T02:34:46.234Z,30.40
2023-02-25T02:37:24.881Z,32.50
2023-02-25T02:40:24.581Z,32.00
2023-02-25T02:43:07.326Z,32.40
2023-02-25T02:45:40.168Z,33.80
2023-02-25T02:48:25.431Z,34.80
2023-02-25T02:50:59.050Z,37.50
2023-02-25T02:53:50.042Z,29.60
2023-02-25T02:56:19.026Z,31.60
2023-02-25T02:58:48.832Z,30.10
2023-02-25T03:04:13.830Z,30.40
2023-02-25T03:06:47.066Z,32.00
2023-02-25T03:09:18.753Z,29.60
2023-02-25T03:11:48.845Z,33.10
2023-02-25T03:14:18.486Z,33.00
2023-02-25T03:17:32.108Z,32.00
2023-02-25T03:20:14.236Z,36.00
2023-02-25T03:22:45.486Z,32.80
2023-02-25T03:25:24.058Z,30.70
2023-02-25T03:27:53.776Z,34.40
2023-02-25T03:30:36.608Z,35.30
2023-02-25T03:33:11.986Z,34.20
2023-02-25T03:35:42.487Z,32.90
2023-02-25T03:38:18.302Z,34.30
2023-02-25T03:40:47.820Z,35.10
2023-02-25T03:43:18.351Z,36.50
2023-02-25T03:45:48.089Z,32.30
2023-02-25T03:48:17.235Z,35.30
2023-02-25T03:50:59.423Z,30.80
2023-02-25T03:53:47.754Z,39.50
2023-02-25T03:58:49.012Z,33.20
2023-02-25T04:01:23.132Z,33.20
2023-02-25T04:03:51.425Z,31.20
2023-02-25T04:06:23.146Z,36.20
2023-02-25T04:08:52.034Z,37.80
2023-02-25T04:11:20.648Z,34.00
2023-02-25T04:13:49.398Z,35.00
2023-02-25T04:16:17.682Z,33.70
2023-02-25T04:18:49.114Z,36.40
2023-02-25T04:21:28.143Z,38.20
2023-02-25T04:23:56.457Z,34.50
2023-02-25T04:26:25.102Z,38.60
2023-02-25T04:31:25.907Z,38.20
2023-02-25T04:33:54.299Z,37.30
2023-02-25T04:36:27.642Z,38.90
2023-02-25T04:38:56.268Z,34.70
2023-02-25T04:41:29.790Z,38.30
2023-02-25T04:43:59.793Z,39.30
2023-02-25T04:46:28.136Z,37.20
2023-02-25T04:48:56.686Z,38.30
2023-02-25T04:51:29.146Z,36.30
2023-02-25T04:53:57.421Z,39.40
2023-02-25T04:56:25.932Z,39.30
2023-02-25T04:58:54.608Z,37.20
2023-02-25T05:01:23.187Z,36.70
2023-02-25T05:03:57.235Z,37.80
2023-02-25T05:06:26.009Z,33.90
2023-02-25T05:08:59.247Z,41.30
2023-02-25T05:11:28.282Z,37.50
2023-02-25T05:13:58.469Z,34.60
2023-02-25T05:16:27.579Z,38.10
2023-02-25T05:18:56.111Z,35.10
2023-02-25T05:21:26.140Z,39.00
2023-02-25T05:23:55.161Z,36.00
2023-02-25T05:26:24.355Z,38.80
2023-02-25T05:28:55.126Z,39.00
2023-02-25T05:31:25.045Z,40.00
2023-02-25T05:33:53.625Z,41.20
2023-02-25T05:36:22.315Z,36.30
2023-02-25T05:38:55.308Z,37.80
2023-02-25T05:41:23.841Z,37.20
2023-02-25T05:43:52.025Z,40.30
2023-02-25T05:46:20.464Z,41.20
2023-02-25T05:48:49.918Z,40.50
2023-02-25T05:51:23.682Z,38.50
2023-02-25T05:53:52.448Z,39.80
2023-02-25T05:56:22.874Z,40.90
2023-02-25T05:58:57.130Z,42.30
2023-02-25T06:01:29.642Z,42.00
2023-02-25T06:03:59.129Z,37.90
2023-02-25T06:06:29.250Z,39.90
2023-02-25T06:08:58.568Z,41.90
2023-02-25T06:11:28.895Z,39.40
2023-02-25T06:13:57.413Z,42.00
2023-02-25T06:16:32.393Z,42.30
2023-02-25T06:19:02.580Z,38.90
2023-02-25T06:21:34.308Z,42.10
2023-02-25T06:24:05.470Z,43.20
2023-02-25T06:26:43.518Z,45.50
2023-02-25T06:29:11.763Z,44.60
2023-02-25T06:31:40.588Z,45.70
2023-02-25T06:34:09.001Z,41.10
2023-02-25T06:36:37.218Z,41.20
2023-02-25T06:39:05.431Z,42.60
2023-02-25T06:41:33.719Z,40.40
2023-02-25T06:44:04.434Z,41.80
2023-02-25T06:46:33.372Z,44.40
2023-02-25T06:49:04.558Z,44.70
2023-02-25T06:51:32.796Z,43.10
2023-02-25T06:54:06.129Z,47.70
2023-02-25T06:56:35.039Z,41.90
2023-02-25T06:59:03.290Z,42.60
2023-02-25T07:01:33.384Z,42.50
2023-02-25T07:04:01.840Z,44.50
2023-02-25T07:06:30.821Z,42.70
2023-02-25T07:08:58.931Z,47.70
2023-02-25T07:11:30.034Z,44.80
2023-02-25T07:13:58.484Z,45.60
2023-02-25T07:16:27.024Z,43.00
2023-02-25T07:18:57.895Z,48.10
2023-02-25T07:21:29.409Z,37.20
2023-02-25T07:23:58.198Z,39.00
2023-02-25T07:26:28.619Z,44.50
2023-02-25T07:28:58.307Z,46.60
2023-02-25T07:31:27.392Z,47.50
2023-02-25T07:33:56.264Z,42.20
2023-02-25T07:36:26.296Z,46.70
2023-02-25T07:38:54.921Z,42.30
2023-02-25T07:41:23.404Z,48.40
2023-02-25T07:43:52.782Z,47.90
2023-02-25T07:46:22.368Z,49.30
2023-02-25T07:48:53.707Z,44.00
2023-02-25T07:51:24.002Z,45.00
2023-02-25T07:53:54.018Z,45.00
2023-02-25T07:56:27.412Z,44.00
2023-02-25T07:58:56.747Z,46.70
2023-02-25T08:01:28.015Z,42.40
2023-02-25T08:04:04.412Z,46.40
2023-02-25T08:06:38.019Z,47.20
2023-02-25T08:09:07.326Z,42.40
2023-02-25T08:11:36.091Z,47.00
2023-02-25T08:14:05.789Z,46.00
2023-02-25T08:16:34.217Z,44.30
2023-02-25T08:19:02.599Z,43.20
2023-02-25T08:21:33.573Z,42.60
2023-02-25T08:24:05.321Z,44.30
2023-02-25T08:26:33.846Z,43.30
2023-02-25T08:29:02.339Z,42.70
2023-02-25T08:31:34.206Z,44.60
2023-02-25T08:34:05.426Z,46.50
2023-02-25T08:36:34.647Z,50.50
2023-02-25T08:39:03.369Z,50.10
2023-02-25T08:41:31.746Z,50.10
2023-02-25T08:44:01.408Z,44.50
2023-02-25T08:46:32.650Z,47.30
2023-02-25T08:49:01.410Z,42.30
2023-02-25T08:51:36.486Z,41.40
2023-02-25T08:54:10.164Z,41.30
2023-02-25T08:56:44.298Z,42.90
2023-02-25T08:59:14.704Z,40.60
2023-02-25T09:01:45.944Z,41.60
2023-02-25T09:04:16.529Z,41.50
2023-02-25T09:06:47.449Z,43.10
2023-02-25T09:09:16.341Z,43.40
2023-02-25T09:11:46.154Z,39.90
2023-02-25T09:14:16.872Z,40.40
2023-02-25T09:16:46.963Z,39.50
2023-02-25T09:19:18.578Z,39.50
2023-02-25T09:21:50.455Z,38.30
2023-02-25T09:24:19.974Z,39.30
2023-02-25T09:26:48.270Z,37.80
2023-02-25T09:29:17.053Z,36.60
2023-02-25T09:31:45.609Z,36.90
2023-02-25T09:34:14.201Z,38.20
2023-02-25T09:36:43.186Z,34.40
2023-02-25T09:39:11.721Z,33.10
2023-02-25T09:41:56.319Z,33.20
2023-02-25T09:44:28.835Z,32.90
2023-02-25T09:47:02.767Z,33.90
2023-02-25T09:49:37.954Z,32.00
2023-02-25T09:52:12.546Z,32.10
2023-02-25T09:54:48.330Z,31.70
2023-02-25T09:57:19.345Z,31.40
2023-02-25T09:59:48.656Z,29.40
2023-02-25T10:02:27.828Z,28.70
2023-02-25T10:05:33.477Z,29.40
2023-02-25T10:08:29.692Z,32.20
2023-02-25T10:11:04.279Z,30.80
2023-02-25T10:13:41.491Z,27.20
2023-02-25T10:16:14.394Z,27.40
2023-02-25T10:19:11.282Z,27.40
2023-02-25T10:22:10.130Z,28.30
2023-02-25T10:24:48.718Z,28.10
2023-02-25T10:27:22.571Z,30.00
2023-02-25T10:30:02.253Z,27.90
2023-02-25T10:32:37.215Z,28.40
2023-02-25T10:35:36.992Z,27.00
2023-02-25T10:38:06.058Z,27.40
2023-02-25T10:40:37.104Z,26.30
2023-02-25T10:43:26.390Z,24.50
2023-02-25T10:46:17.451Z,28.70
2023-02-25T10:48:52.409Z,28.10
2023-02-25T10:51:21.886Z,26.90
2023-02-25T10:53:58.213Z,26.40
2023-02-25T10:56:31.666Z,25.80
2023-02-25T10:59:05.475Z,24.70
2023-02-25T11:01:39.691Z,26.00
2023-02-25T11:04:12.584Z,24.90
2023-02-25T11:06:42.918Z,24.20
2023-02-25T11:09:20.792Z,27.70
2023-02-25T11:12:09.872Z,26.10
2023-02-25T11:14:39.830Z,25.10
2023-02-25T11:17:14.090Z,25.50
2023-02-25T11:20:00.062Z,25.40
2023-02-25T11:22:38.103Z,28.10
2023-02-25T11:25:14.532Z,26.40
2023-02-25T11:27:43.618Z,23.70
2023-02-25T11:30:15.658Z,23.60
2023-02-25T11:32:54.265Z,26.40
2023-02-25T11:35:30.801Z,28.80
2023-02-25T11:37:59.681Z,25.80
2023-02-25T11:40:30.046Z,25.10
2023-02-25T11:46:23.221Z,28.90
2023-02-25T11:49:00.607Z,26.20
2023-02-25T11:51:47.344Z,29.60
2023-02-25T11:54:26.053Z,26.30
2023-02-25T11:57:17.370Z,27.30
2023-02-25T11:59:54.386Z,26.60
2023-02-25T12:02:48.568Z,26.90
2023-02-25T12:05:46.146Z,25.60
2023-02-25T12:08:23.306Z,26.60
2023-02-25T12:11:32.323Z,27.50
2023-02-25T12:14:38.960Z,23.90
2023-02-25T12:17:32.347Z,27.90
2023-02-25T12:20:32.407Z,25.10
2023-02-25T12:23:29.982Z,27.30
2023-02-25T12:26:24.431Z,25.70
2023-02-25T12:29:10.793Z,25.90
2023-02-25T12:32:11.429Z,26.30
2023-02-25T12:35:17.906Z,28.00
2023-02-25T12:38:05.183Z,28.70
2023-02-25T12:40:36.792Z,28.80
2023-02-25T12:43:30.101Z,30.20
2023-02-25T12:46:11.041Z,27.30
2023-02-25T12:49:25.073Z,27.90
2023-02-25T12:52:18.773Z,26.50
2023-02-25T12:55:00.327Z,26.10
2023-02-25T12:57:33.224Z,29.30
2023-02-25T13:00:17.390Z,26.70
2023-02-25T13:03:03.722Z,27.90
2023-02-25T13:05:38.135Z,29.20
2023-02-25T13:08:12.686Z,30.40
2023-02-25T13:10:47.595Z,27.20
2023-02-25T13:13:49.770Z,27.50
2023-02-25T13:16:37.477Z,28.10
2023-02-25T13:19:27.128Z,29.40
2023-02-25T13:22:00.146Z,30.40
2023-02-25T13:24:40.389Z,27.30
2023-02-25T13:27:33.905Z,28.50
2023-02-25T13:30:12.165Z,29.10
2023-02-25T13:33:14.256Z,29.40
2023-02-25T13:36:02.172Z,27.80
2023-02-25T13:38:56.256Z,28.70
2023-02-25T13:41:37.765Z,31.30
2023-02-25T13:44:25.983Z,34.90
2023-02-25T13:47:07.176Z,26.90
2023-02-25T13:52:35.163Z,30.80
2023-02-25T13:55:08.401Z,30.10
2023-02-25T13:58:22.197Z,28.10
2023-02-25T14:00:54.072Z,31.30
2023-02-25T14:03:29.047Z,30.50
2023-02-25T14:06:28.446Z,29.50
2023-02-25T14:09:07.766Z,28.30
2023-02-25T14:12:13.010Z,28.90
2023-02-25T14:15:09.035Z,30.80
2023-02-25T14:17:37.927Z,28.40
2023-02-25T14:20:21.697Z,28.00
2023-02-25T14:22:57.205Z,27.50
2023-02-25T14:25:58.344Z,29.30
2023-02-25T14:28:35.915Z,30.00
2023-02-25T14:31:23.920Z,28.50
2023-02-25T14:34:20.476Z,31.60
2023-02-25T14:37:14.958Z,36.40
2023-02-25T14:40:06.752Z,32.80
2023-02-25T14:43:01.838Z,32.20
2023-02-25T14:46:05.691Z,43.40
2023-02-25T14:49:15.573Z,33.50
2023-02-25T14:52:14.566Z,37.60
2023-02-25T14:54:52.565Z,38.20
2023-02-25T14:57:52.081Z,37.70
2023-02-25T15:00:25.693Z,35.40
2023-02-25T15:03:23.537Z,34.50
2023-02-25T15:06:25.854Z,33.90
2023-02-25T15:09:18.984Z,34.50
2023-02-25T15:12:07.107Z,32.60
2023-02-25T15:14:59.621Z,35.50
2023-02-25T15:18:08.482Z,34.50
2023-02-25T15:20:40.740Z,33.80
2023-02-25T15:23:16.724Z,30.00
2023-02-25T15:25:54.005Z,33.80
2023-02-25T15:28:29.119Z,33.50
2023-02-25T15:31:01.400Z,31.60
2023-02-25T15:33:36.244Z,32.20
2023-02-25T15:36:17.461Z,34.40
2023-02-25T15:38:53.662Z,33.80
2023-02-25T15:41:34.740Z,39.90
2023-02-25T15:44:09.060Z,34.90
2023-02-25T15:46:47.642Z,33.30
2023-02-25T15:49:28.806Z,31.00
2023-02-25T15:52:03.230Z,30.50
2023-02-25T15:54:37.743Z,33.80
2023-02-25T15:57:08.756Z,35.40
2023-02-25T15:59:41.421Z,31.20
2023-02-25T16:02:33.492Z,33.60
2023-02-25T16:05:15.563Z,32.10
2023-02-25T16:07:49.473Z,31.70
2023-02-25T16:10:38.702Z,31.60
2023-02-25T16:13:14.461Z,31.90
2023-02-25T16:15:48.545Z,34.60
2023-02-25T16:18:25.478Z,31.20
2023-02-25T16:21:00.186Z,23.60
2023-02-25T16:23:31.466Z,20.30
2023-02-25T16:26:18.213Z,16.40
2023-02-25T16:29:12.585Z,12.80
2023-02-25T16:32:03.448Z,11.00
2023-02-25T16:34:50.511Z,11.30
2023-02-25T16:37:27.613Z,22.30
2023-02-25T16:39:57.611Z,13.30
2023-02-25T16:42:26.118Z,9.30
2023-02-25T16:45:01.210Z,7.80
2023-02-25T16:47:31.095Z,7.40
2023-02-25T16:50:00.397Z,8.40
2023-02-25T16:52:34.136Z,13.90
2023-02-25T16:55:10.834Z,15.20
2023-02-25T16:57:40.358Z,13.40
2023-02-25T17:00:19.641Z,11.30
2023-02-25T17:02:52.774Z,6.20
2023-02-25T17:05:24.057Z,8.80
2023-02-25T17:08:03.093Z,7.60
2023-02-25T17:10:46.608Z,5.30
2023-02-25T17:13:36.886Z,6.50
2023-02-25T17:16:05.399Z,7.70
2023-02-25T17:18:51.305Z,11.60
2023-02-25T17:21:30.097Z,14.50
2023-02-25T17:23:58.484Z,10.40
2023-02-25T17:26:26.978Z,9.60
2023-02-25T17:29:01.619Z,8.20
2023-02-25T17:31:30.144Z,7.60
2023-02-25T17:34:03.644Z,8.50
2023-02-25T17:36:39.474Z,6.70
2023-02-25T17:39:12.425Z,6.40
2023-02-25T17:44:32.906Z,5.90
2023-02-25T17:47:01.960Z,4.80
2023-02-25T17:49:32.581Z,12.40
2023-02-25T17:52:08.187Z,32.90
2023-02-25T17:54:37.342Z,14.00
2023-02-25T17:57:18.977Z,7.20
2023-02-25T17:59:56.911Z,10.50
2023-02-25T18:02:39.134Z,10.40
2023-02-25T18:05:11.341Z,27.50
2023-02-25T18:07:43.628Z,24.30
2023-02-25T18:10:50.354Z,16.60
2023-02-25T18:13:28.383Z,9.40
2023-02-25T18:16:25.057Z,4.90
2023-02-25T18:18:53.735Z,5.10
2023-02-25T18:21:22.150Z,3.70
2023-02-25T18:23:54.086Z,4.80
2023-02-25T18:26:24.641Z,6.50
2023-02-25T18:28:55.021Z,8.70
2023-02-25T18:31:23.342Z,10.30
2023-02-25T18:33:52.274Z,8.30
2023-02-25T18:36:26.971Z,6.20
2023-02-25T18:38:58.273Z,7.20
2023-02-25T18:41:26.846Z,8.10
2023-02-25T18:43:55.249Z,5.60
2023-02-25T18:46:24.090Z,8.90
2023-02-25T18:48:52.772Z,17.00
2023-02-25T18:51:20.970Z,14.90
2023-02-25T18:53:53.017Z,13.90
2023-02-25T18:56:23.122Z,12.30
2023-02-25T18:58:54.784Z,9.70
2023-02-25T19:01:25.278Z,9.80
2023-02-25T19:03:59.460Z,11.30
2023-02-25T19:06:29.792Z,11.00
2023-02-25T19:09:01.547Z,10.00
2023-02-25T19:11:31.696Z,7.80
2023-02-25T19:14:03.733Z,7.00
2023-02-25T19:16:32.369Z,9.00
2023-02-25T19:19:00.669Z,7.90
2023-02-25T19:21:30.202Z,8.40
2023-02-25T19:23:58.741Z,6.70
2023-02-25T19:26:27.237Z,6.20
2023-02-25T19:28:55.738Z,7.90
2023-02-25T19:31:24.002Z,7.00
2023-02-25T19:33:52.418Z,7.20
2023-02-25T19:36:20.706Z,10.80
2023-02-25T19:38:48.968Z,9.30
2023-02-25T19:41:17.633Z,9.20
2023-02-25T19:43:51.698Z,8.80
2023-02-25T19:46:21.030Z,7.90
2023-02-25T19:48:49.355Z,11.30
2023-02-25T19:51:17.630Z,12.20
2023-02-25T19:53:52.618Z,9.30
2023-02-25T19:56:21.683Z,12.90
2023-02-25T19:58:50.121Z,10.50
2023-02-25T20:01:19.108Z,9.90
2023-02-25T20:03:47.710Z,8.80
2023-02-25T20:06:15.932Z,11.20
2023-02-25T20:08:52.666Z,10.50
2023-02-25T20:11:23.624Z,9.00
2023-02-25T20:13:51.847Z,11.00
2023-02-25T20:16:24.144Z,11.00
2023-02-25T20:18:56.563Z,12.40
2023-02-25T20:21:26.042Z,10.90
2023-02-25T20:23:54.613Z,14.30
2023-02-25T20:26:24.771Z,10.90
2023-02-25T20:28:56.600Z,11.80
2023-02-25T20:31:25.840Z,10.90
2023-02-25T20:33:56.521Z,12.70
2023-02-25T20:36:28.892Z,12.30
2023-02-25T20:39:12.963Z,11.70
2023-02-25T20:41:45.312Z,10.80
2023-02-25T20:44:13.813Z,11.40
2023-02-25T20:46:43.226Z,11.60
2023-02-25T20:49:18.231Z,11.50
2023-02-25T20:51:47.598Z,11.50
2023-02-25T20:54:16.795Z,11.00
2023-02-25T20:56:54.044Z,12.40
2023-02-25T20:59:22.309Z,13.90
2023-02-25T21:01:50.574Z,12.30
2023-02-25T21:04:18.844Z,15.90
2023-02-25T21:06:48.146Z,11.80
2023-02-25T21:09:17.049Z,15.00
2023-02-25T21:11:46.198Z,12.10
2023-02-25T21:14:14.493Z,15.40
2023-02-25T21:16:42.844Z,13.60
2023-02-25T21:19:12.298Z,15.20
2023-02-25T21:21:40.835Z,15.10
2023-02-25T21:24:10.382Z,13.80
2023-02-25T21:26:41.409Z,14.40
2023-02-25T21:29:10.873Z,15.00
2023-02-25T21:31:40.036Z,12.70
2023-02-25T21:34:11.818Z,14.30
2023-02-25T21:36:40.936Z,12.00
2023-02-25T21:39:09.654Z,10.50
2023-02-25T21:41:44.289Z,10.10
2023-02-25T21:44:13.178Z,12.20
2023-02-25T21:46:41.449Z,10.40
2023-02-25T21:49:10.830Z,11.00
2023-02-25T21:51:40.364Z,10.10
2023-02-25T21:54:09.051Z,12.10
2023-02-25T21:56:37.735Z,12.60
2023-02-25T21:59:06.153Z,11.40
2023-02-25T22:01:36.872Z,11.30
2023-02-25T22:04:05.495Z,10.80
2023-02-25T22:06:35.246Z,9.20
2023-02-25T22:09:03.964Z,10.00
2023-02-25T22:11:33.993Z,11.10
2023-02-25T22:14:07.034Z,8.00
2023-02-25T22:16:37.081Z,9.90
2023-02-25T22:19:05.305Z,10.10
2023-02-25T22:21:34.324Z,9.30
2023-02-25T22:24:03.513Z,9.00
2023-02-25T22:26:33.423Z,8.80
2023-02-25T22:29:04.640Z,10.30
2023-02-25T22:31:34.348Z,9.20
2023-02-25T22:34:03.228Z,10.20
2023-02-25T22:36:31.539Z,10.90
2023-02-25T22:39:00.138Z,11.00
2023-02-25T22:41:29.243Z,11.70
2023-02-25T22:43:58.508Z,11.40
2023-02-25T22:46:31.463Z,10.80
2023-02-25T22:51:32.992Z,11.30
2023-02-25T22:54:02.280Z,10.70
2023-02-25T22:56:30.622Z,13.90
2023-02-25T22:58:58.902Z,16.20
2023-02-25T23:01:27.426Z,18.40
2023-02-25T23:03:56.424Z,17.20
2023-02-25T23:06:37.485Z,18.60
2023-02-25T23:09:11.679Z,16.10
2023-02-25T23:11:43.598Z,18.90
2023-02-25T23:14:12.904Z,23.50
2023-02-25T23:16:43.296Z,26.70
2023-02-25T23:19:15.806Z,30.30
2023-02-25T23:21:45.223Z,31.30
2023-02-25T23:24:18.773Z,30.20
2023-02-25T23:26:50.319Z,26.40
2023-02-25T23:29:18.724Z,27.80
2023-02-25T23:31:49.241Z,24.00
2023-02-25T23:34:20.019Z,24.30
2023-02-25T23:36:48.686Z,21.90
2023-02-25T23:39:17.207Z,21.50
2023-02-25T23:41:45.594Z,21.90
2023-02-25T23:44:14.463Z,21.30
2023-02-25T23:46:43.219Z,21.30
2023-02-25T23:49:12.915Z,20.80
2023-02-25T23:51:42.821Z,18.10
2023-02-25T23:54:12.332Z,18.90
2023-02-25T23:56:40.490Z,17.50
2023-02-25T23:59:11.056Z,16.60
